sensor_id;sensor_type;location;lat;lon;timestamp;temperature;humidity
61916;DHT22;47868;51.326;6.550;2023-02-01T00:01:50;7.00;99.90
61916;DHT22;47868;51.326;6.550;2023-02-01T00:04:16;7.00;99.90
61916;DHT22;47868;51.326;6.550;2023-02-01T00:06:42;7.10;99.90
61916;DHT22;47868;51.326;6.550;2023-02-01T00:09:07;7.10;99.90
61916;DHT22;47868;51.326;6.550;2023-02-01T00:11:33;7.10;99.90
61916;DHT22;47868;51.326;6.550;2023-02-01T00:13:59;7.10;99.90
61916;DHT22;47868;51.326;6.550;2023-02-01T00:16:27;7.10;99.90
61916;DHT22;47868;51.326;6.550;2023-02-01T00:19:05;7.10;99.90
61916;DHT22;47868;51.326;6.550;2023-02-01T00:21:31;7.10;99.90
61916;DHT22;47868;51.326;6.550;2023-02-01T00:23:57;7.10;99.90
61916;DHT22;47868;51.326;6.550;2023-02-01T00:28:53;7.00;99.90
61916;DHT22;47868;51.326;6.550;2023-02-01T00:31:19;7.10;99.90
61916;DHT22;47868;51.326;6.550;2023-02-01T00:33:47;7.10;99.90
61916;DHT22;47868;51.326;6.550;2023-02-01T00:36:13;7.10;99.90
61916;DHT22;47868;51.326;6.550;2023-02-01T00:38:39;7.00;99.90
61916;DHT22;47868;51.326;6.550;2023-02-01T00:41:07;7.00;99.90
61916;DHT22;47868;51.326;6.550;2023-02-01T00:43:33;6.90;99.90
61916;DHT22;47868;51.326;6.550;2023-02-01T00:45:58;6.90;99.90
61916;DHT22;47868;51.326;6.550;2023-02-01T00:48:24;6.80;99.90
61916;DHT22;47868;51.326;6.550;2023-02-01T00:50:50;6.80;99.90
61916;DHT22;47868;51.326;6.550;2023-02-01T00:53:16;6.80;99.90
61916;DHT22;47868;51.326;6.550;2023-02-01T00:55:47;6.80;99.90
61916;DHT22;47868;51.326;6.550;2023-02-01T00:58:13;6.80;99.90
61916;DHT22;47868;51.326;6.550;2023-02-01T01:00:39;6.80;99.90
61916;DHT22;47868;51.326;6.550;2023-02-01T01:03:05;6.80;99.90
61916;DHT22;47868;51.326;6.550;2023-02-01T01:05:47;6.80;99.90
61916;DHT22;47868;51.326;6.550;2023-02-01T01:08:14;6.70;99.90
61916;DHT22;47868;51.326;6.550;2023-02-01T01:10:39;6.80;99.90
61916;DHT22;47868;51.326;6.550;2023-02-01T01:13:05;6.70;99.90
61916;DHT22;47868;51.326;6.550;2023-02-01T01:15:32;6.70;99.90
61916;DHT22;47868;51.326;6.550;2023-02-01T01:18:00;6.70;99.90
61916;DHT22;47868;51.326;6.550;2023-02-01T01:20:26;6.60;99.90
61916;DHT22;47868;51.326;6.550;2023-02-01T01:22:51;6.60;99.90
61916;DHT22;47868;51.326;6.550;2023-02-01T01:25:17;6.60;99.90
61916;DHT22;47868;51.326;6.550;2023-02-01T01:27:42;6.60;99.90
61916;DHT22;47868;51.326;6.550;2023-02-01T01:30:08;6.60;99.90
61916;DHT22;47868;51.326;6.550;2023-02-01T01:32:34;6.60;99.90
61916;DHT22;47868;51.326;6.550;2023-02-01T01:35:00;6.60;99.90
61916;DHT22;47868;51.326;6.550;2023-02-01T01:37:25;6.50;99.90
61916;DHT22;47868;51.326;6.550;2023-02-01T01:39:51;6.50;99.90
61916;DHT22;47868;51.326;6.550;2023-02-01T01:42:16;6.50;99.90
61916;DHT22;47868;51.326;6.550;2023-02-01T01:45:01;6.40;99.90
61916;DHT22;47868;51.326;6.550;2023-02-01T01:47:35;6.40;99.90
61916;DHT22;47868;51.326;6.550;2023-02-01T01:50:03;6.40;99.90
61916;DHT22;47868;51.326;6.550;2023-02-01T01:52:30;6.40;99.90
61916;DHT22;47868;51.326;6.550;2023-02-01T01:54:55;6.30;99.90
61916;DHT22;47868;51.326;6.550;2023-02-01T01:57:27;6.20;99.90
61916;DHT22;47868;51.326;6.550;2023-02-01T02:00:08;6.20;99.90
61916;DHT22;47868;51.326;6.550;2023-02-01T02:02:36;6.20;99.90
61916;DHT22;47868;51.326;6.550;2023-02-01T02:05:02;6.10;99.90
61916;DHT22;47868;51.326;6.550;2023-02-01T02:07:32;6.10;99.90
61916;DHT22;47868;51.326;6.550;2023-02-01T02:09:59;6.10;99.90
61916;DHT22;47868;51.326;6.550;2023-02-01T02:12:25;6.10;99.90
61916;DHT22;47868;51.326;6.550;2023-02-01T02:14:51;6.10;99.90
61916;DHT22;47868;51.326;6.550;2023-02-01T02:20:07;6.10;99.90
61916;DHT22;47868;51.326;6.550;2023-02-01T02:41:28;6.00;99.90
61916;DHT22;47868;51.326;6.550;2023-02-01T02:44:45;5.90;99.90
61916;DHT22;47868;51.326;6.550;2023-02-01T02:50:36;5.90;99.90
61916;DHT22;47868;51.326;6.550;2023-02-01T02:53:27;5.90;99.90
61916;DHT22;47868;51.326;6.550;2023-02-01T02:56:12;5.80;99.90
61916;DHT22;47868;51.326;6.550;2023-02-01T02:58:58;5.80;99.90
61916;DHT22;47868;51.326;6.550;2023-02-01T03:01:42;5.80;99.90
61916;DHT22;47868;51.326;6.550;2023-02-01T03:04:27;5.80;99.90
61916;DHT22;47868;51.326;6.550;2023-02-01T03:06:53;5.80;99.90
61916;DHT22;47868;51.326;6.550;2023-02-01T03:09:33;5.70;99.90
61916;DHT22;47868;51.326;6.550;2023-02-01T03:12:04;5.70;99.90
61916;DHT22;47868;51.326;6.550;2023-02-01T03:14:56;5.80;99.90
61916;DHT22;47868;51.326;6.550;2023-02-01T03:17:29;5.80;99.90
61916;DHT22;47868;51.326;6.550;2023-02-01T03:19:59;5.90;99.90
61916;DHT22;47868;51.326;6.550;2023-02-01T03:22:27;5.90;99.90
61916;DHT22;47868;51.326;6.550;2023-02-01T03:25:02;6.00;99.90
61916;DHT22;47868;51.326;6.550;2023-02-01T03:27:38;6.00;99.90
61916;DHT22;47868;51.326;6.550;2023-02-01T03:32:33;6.10;99.90
61916;DHT22;47868;51.326;6.550;2023-02-01T03:35:26;6.10;99.90
61916;DHT22;47868;51.326;6.550;2023-02-01T03:38:01;6.10;99.90
61916;DHT22;47868;51.326;6.550;2023-02-01T03:40:32;6.10;99.90
61916;DHT22;47868;51.326;6.550;2023-02-01T03:43:00;6.10;99.90
61916;DHT22;47868;51.326;6.550;2023-02-01T03:45:31;6.10;99.90
61916;DHT22;47868;51.326;6.550;2023-02-01T03:48:00;6.10;99.90
61916;DHT22;47868;51.326;6.550;2023-02-01T03:50:28;6.20;99.90
61916;DHT22;47868;51.326;6.550;2023-02-01T03:53:07;6.20;99.90
61916;DHT22;47868;51.326;6.550;2023-02-01T03:55:35;6.20;99.90
61916;DHT22;47868;51.326;6.550;2023-02-01T03:58:07;6.90;99.90
61916;DHT22;47868;51.326;6.550;2023-02-01T04:00:34;6.20;99.90
61916;DHT22;47868;51.326;6.550;2023-02-01T04:03:01;6.30;99.90
61916;DHT22;47868;51.326;6.550;2023-02-01T04:05:27;6.20;99.90
61916;DHT22;47868;51.326;6.550;2023-02-01T04:07:53;6.30;99.90
61916;DHT22;47868;51.326;6.550;2023-02-01T04:10:19;6.30;99.90
61916;DHT22;47868;51.326;6.550;2023-02-01T04:12:45;6.30;99.90
61916;DHT22;47868;51.326;6.550;2023-02-01T04:15:11;6.20;99.90
61916;DHT22;47868;51.326;6.550;2023-02-01T04:17:36;6.20;99.90
61916;DHT22;47868;51.326;6.550;2023-02-01T04:20:02;6.10;99.90
61916;DHT22;47868;51.326;6.550;2023-02-01T04:22:28;6.10;99.90
61916;DHT22;47868;51.326;6.550;2023-02-01T04:24:54;6.00;99.90
61916;DHT22;47868;51.326;6.550;2023-02-01T04:27:19;6.00;99.90
61916;DHT22;47868;51.326;6.550;2023-02-01T04:29:45;6.00;99.90
61916;DHT22;47868;51.326;6.550;2023-02-01T04:32:10;6.00;99.90
61916;DHT22;47868;51.326;6.550;2023-02-01T04:34:36;5.90;99.90
61916;DHT22;47868;51.326;6.550;2023-02-01T04:37:02;5.90;99.90
61916;DHT22;47868;51.326;6.550;2023-02-01T04:39:27;5.90;99.90
61916;DHT22;47868;51.326;6.550;2023-02-01T04:41:53;5.90;99.90
61916;DHT22;47868;51.326;6.550;2023-02-01T04:44:19;5.90;99.90
61916;DHT22;47868;51.326;6.550;2023-02-01T04:46:46;5.90;99.90
61916;DHT22;47868;51.326;6.550;2023-02-01T04:49:13;5.90;99.90
61916;DHT22;47868;51.326;6.550;2023-02-01T04:51:39;5.90;99.90
61916;DHT22;47868;51.326;6.550;2023-02-01T04:54:04;5.90;99.90
61916;DHT22;47868;51.326;6.550;2023-02-01T04:56:30;5.90;99.90
61916;DHT22;47868;51.326;6.550;2023-02-01T04:58:56;5.90;99.90
61916;DHT22;47868;51.326;6.550;2023-02-01T05:01:22;5.90;99.90
61916;DHT22;47868;51.326;6.550;2023-02-01T05:03:50;5.90;99.90
61916;DHT22;47868;51.326;6.550;2023-02-01T05:06:16;5.90;99.90
61916;DHT22;47868;51.326;6.550;2023-02-01T05:08:42;5.90;99.90
61916;DHT22;47868;51.326;6.550;2023-02-01T05:11:08;5.80;99.90
61916;DHT22;47868;51.326;6.550;2023-02-01T05:13:53;5.80;99.90
61916;DHT22;47868;51.326;6.550;2023-02-01T05:16:19;5.80;99.90
61916;DHT22;47868;51.326;6.550;2023-02-01T05:18:45;5.80;99.90
61916;DHT22;47868;51.326;6.550;2023-02-01T05:21:10;5.80;99.90
61916;DHT22;47868;51.326;6.550;2023-02-01T05:23:36;5.80;99.90
61916;DHT22;47868;51.326;6.550;2023-02-01T05:26:22;5.80;99.90
61916;DHT22;47868;51.326;6.550;2023-02-01T05:28:47;5.70;99.90
61916;DHT22;47868;51.326;6.550;2023-02-01T05:31:13;5.70;99.90
61916;DHT22;47868;51.326;6.550;2023-02-01T05:33:39;5.70;99.90
61916;DHT22;47868;51.326;6.550;2023-02-01T05:36:04;5.70;99.90
61916;DHT22;47868;51.326;6.550;2023-02-01T05:38:30;5.70;99.90
61916;DHT22;47868;51.326;6.550;2023-02-01T05:40:56;5.70;99.90
61916;DHT22;47868;51.326;6.550;2023-02-01T05:43:22;5.70;99.90
61916;DHT22;47868;51.326;6.550;2023-02-01T05:45:47;5.70;99.90
61916;DHT22;47868;51.326;6.550;2023-02-01T05:48:13;5.60;99.90
61916;DHT22;47868;51.326;6.550;2023-02-01T05:50:39;5.60;99.90
61916;DHT22;47868;51.326;6.550;2023-02-01T05:53:05;5.60;99.90
61916;DHT22;47868;51.326;6.550;2023-02-01T05:55:30;5.60;99.90
61916;DHT22;47868;51.326;6.550;2023-02-01T05:57:56;5.60;99.90
61916;DHT22;47868;51.326;6.550;2023-02-01T06:00:22;5.60;99.90
61916;DHT22;47868;51.326;6.550;2023-02-01T06:02:48;5.60;99.90
61916;DHT22;47868;51.326;6.550;2023-02-01T06:05:13;5.60;99.90
61916;DHT22;47868;51.326;6.550;2023-02-01T06:07:39;5.70;99.90
61916;DHT22;47868;51.326;6.550;2023-02-01T06:10:05;5.70;99.90
61916;DHT22;47868;51.326;6.550;2023-02-01T06:12:31;5.70;99.90
61916;DHT22;47868;51.326;6.550;2023-02-01T06:14:57;5.70;99.90
61916;DHT22;47868;51.326;6.550;2023-02-01T06:17:24;5.80;99.90
61916;DHT22;47868;51.326;6.550;2023-02-01T06:19:49;5.80;99.90
61916;DHT22;47868;51.326;6.550;2023-02-01T06:22:15;5.80;99.90
61916;DHT22;47868;51.326;6.550;2023-02-01T06:24:40;5.90;99.90
61916;DHT22;47868;51.326;6.550;2023-02-01T06:27:06;5.90;99.90
61916;DHT22;47868;51.326;6.550;2023-02-01T06:29:32;5.90;99.90
61916;DHT22;47868;51.326;6.550;2023-02-01T06:31:58;5.90;99.90
61916;DHT22;47868;51.326;6.550;2023-02-01T06:34:24;6.00;99.90
61916;DHT22;47868;51.326;6.550;2023-02-01T06:36:50;6.00;99.90
61916;DHT22;47868;51.326;6.550;2023-02-01T06:39:15;6.00;99.90
61916;DHT22;47868;51.326;6.550;2023-02-01T06:41:42;6.10;99.90
61916;DHT22;47868;51.326;6.550;2023-02-01T06:44:10;6.10;99.90
61916;DHT22;47868;51.326;6.550;2023-02-01T06:46:36;6.10;99.90
61916;DHT22;47868;51.326;6.550;2023-02-01T06:49:01;6.10;99.90
61916;DHT22;47868;51.326;6.550;2023-02-01T06:51:28;6.10;99.90
61916;DHT22;47868;51.326;6.550;2023-02-01T06:53:56;6.10;99.90
61916;DHT22;47868;51.326;6.550;2023-02-01T06:56:22;6.10;99.90
61916;DHT22;47868;51.326;6.550;2023-02-01T06:58:48;6.10;99.90
61916;DHT22;47868;51.326;6.550;2023-02-01T07:01:14;6.10;99.90
61916;DHT22;47868;51.326;6.550;2023-02-01T07:03:41;6.10;99.90
61916;DHT22;47868;51.326;6.550;2023-02-01T07:06:07;6.10;99.90
61916;DHT22;47868;51.326;6.550;2023-02-01T07:08:34;6.10;99.90
61916;DHT22;47868;51.326;6.550;2023-02-01T07:11:05;6.10;99.90
61916;DHT22;47868;51.326;6.550;2023-02-01T07:13:31;6.10;99.90
61916;DHT22;47868;51.326;6.550;2023-02-01T07:16:05;6.10;99.90
61916;DHT22;47868;51.326;6.550;2023-02-01T07:18:32;6.20;99.90
61916;DHT22;47868;51.326;6.550;2023-02-01T07:20:58;6.20;99.90
61916;DHT22;47868;51.326;6.550;2023-02-01T07:23:25;6.20;99.90
61916;DHT22;47868;51.326;6.550;2023-02-01T07:25:59;6.20;99.90
61916;DHT22;47868;51.326;6.550;2023-02-01T07:28:25;6.20;99.90
61916;DHT22;47868;51.326;6.550;2023-02-01T07:30:51;6.30;99.90
61916;DHT22;47868;51.326;6.550;2023-02-01T07:33:22;6.30;99.90
61916;DHT22;47868;51.326;6.550;2023-02-01T07:35:49;6.30;99.90
61916;DHT22;47868;51.326;6.550;2023-02-01T07:38:15;6.30;99.90
61916;DHT22;47868;51.326;6.550;2023-02-01T07:40:42;6.30;99.90
61916;DHT22;47868;51.326;6.550;2023-02-01T07:43:08;6.40;99.90
61916;DHT22;47868;51.326;6.550;2023-02-01T07:45:35;6.40;99.90
61916;DHT22;47868;51.326;6.550;2023-02-01T07:48:01;6.40;99.90
61916;DHT22;47868;51.326;6.550;2023-02-01T07:50:27;6.40;99.90
61916;DHT22;47868;51.326;6.550;2023-02-01T07:52:52;6.40;99.90
61916;DHT22;47868;51.326;6.550;2023-02-01T07:55:19;6.40;99.90
61916;DHT22;47868;51.326;6.550;2023-02-01T07:57:45;6.30;99.90
61916;DHT22;47868;51.326;6.550;2023-02-01T08:00:11;6.30;99.90
61916;DHT22;47868;51.326;6.550;2023-02-01T08:02:58;6.30;99.90
61916;DHT22;47868;51.326;6.550;2023-02-01T08:05:24;6.30;99.90
61916;DHT22;47868;51.326;6.550;2023-02-01T08:07:49;6.30;99.90
61916;DHT22;47868;51.326;6.550;2023-02-01T08:10:16;6.20;99.90
61916;DHT22;47868;51.326;6.550;2023-02-01T08:12:42;6.20;99.90
61916;DHT22;47868;51.326;6.550;2023-02-01T08:15:08;6.20;99.90
61916;DHT22;47868;51.326;6.550;2023-02-01T08:17:33;6.20;99.90
61916;DHT22;47868;51.326;6.550;2023-02-01T08:19:59;6.30;99.90
61916;DHT22;47868;51.326;6.550;2023-02-01T08:22:24;6.30;99.90
61916;DHT22;47868;51.326;6.550;2023-02-01T08:24:50;6.30;99.90
61916;DHT22;47868;51.326;6.550;2023-02-01T08:27:17;6.30;99.90
61916;DHT22;47868;51.326;6.550;2023-02-01T08:29:43;6.30;99.90
61916;DHT22;47868;51.326;6.550;2023-02-01T08:32:09;6.30;99.90
61916;DHT22;47868;51.326;6.550;2023-02-01T08:34:34;6.40;99.90
61916;DHT22;47868;51.326;6.550;2023-02-01T08:37:00;6.40;99.90
61916;DHT22;47868;51.326;6.550;2023-02-01T08:39:26;6.40;99.90
61916;DHT22;47868;51.326;6.550;2023-02-01T08:41:52;6.40;99.90
61916;DHT22;47868;51.326;6.550;2023-02-01T08:44:36;6.40;99.90
61916;DHT22;47868;51.326;6.550;2023-02-01T08:47:03;6.50;99.90
61916;DHT22;47868;51.326;6.550;2023-02-01T08:49:29;6.50;99.90
61916;DHT22;47868;51.326;6.550;2023-02-01T08:51:54;6.50;99.90
61916;DHT22;47868;51.326;6.550;2023-02-01T08:54:21;6.50;99.90
61916;DHT22;47868;51.326;6.550;2023-02-01T08:56:46;6.60;99.90
61916;DHT22;47868;51.326;6.550;2023-02-01T08:59:12;6.50;99.90
61916;DHT22;47868;51.326;6.550;2023-02-01T09:01:38;6.60;99.90
61916;DHT22;47868;51.326;6.550;2023-02-01T09:04:03;6.70;99.90
61916;DHT22;47868;51.326;6.550;2023-02-01T09:06:29;6.70;99.90
61916;DHT22;47868;51.326;6.550;2023-02-01T09:08:55;6.70;99.90
61916;DHT22;47868;51.326;6.550;2023-02-01T09:11:20;6.70;99.90
61916;DHT22;47868;51.326;6.550;2023-02-01T09:13:47;6.60;99.90
61916;DHT22;47868;51.326;6.550;2023-02-01T09:16:13;6.60;99.90
61916;DHT22;47868;51.326;6.550;2023-02-01T09:18:39;6.70;99.90
61916;DHT22;47868;51.326;6.550;2023-02-01T09:21:06;6.70;99.90
61916;DHT22;47868;51.326;6.550;2023-02-01T09:23:32;6.70;99.90
61916;DHT22;47868;51.326;6.550;2023-02-01T09:26:02;6.80;99.90
61916;DHT22;47868;51.326;6.550;2023-02-01T09:28:28;6.80;99.90
61916;DHT22;47868;51.326;6.550;2023-02-01T09:30:58;6.90;99.90
61916;DHT22;47868;51.326;6.550;2023-02-01T09:33:24;7.00;99.90
61916;DHT22;47868;51.326;6.550;2023-02-01T09:35:56;7.00;99.90
61916;DHT22;47868;51.326;6.550;2023-02-01T09:38:22;7.10;99.90
61916;DHT22;47868;51.326;6.550;2023-02-01T09:40:47;7.10;99.90
61916;DHT22;47868;51.326;6.550;2023-02-01T09:43:40;7.10;99.90
61916;DHT22;47868;51.326;6.550;2023-02-01T09:46:23;7.10;99.90
61916;DHT22;47868;51.326;6.550;2023-02-01T09:48:54;7.20;99.90
61916;DHT22;47868;51.326;6.550;2023-02-01T09:51:27;7.20;99.90
61916;DHT22;47868;51.326;6.550;2023-02-01T09:54:15;7.20;99.90
61916;DHT22;47868;51.326;6.550;2023-02-01T09:56:47;7.30;99.90
61916;DHT22;47868;51.326;6.550;2023-02-01T10:02:02;7.30;99.90
61916;DHT22;47868;51.326;6.550;2023-02-01T10:04:28;7.30;99.90
61916;DHT22;47868;51.326;6.550;2023-02-01T10:12:41;7.50;99.90
61916;DHT22;47868;51.326;6.550;2023-02-01T10:15:26;7.50;99.90
61916;DHT22;47868;51.326;6.550;2023-02-01T10:25:55;7.80;99.90
61916;DHT22;47868;51.326;6.550;2023-02-01T10:28:22;7.70;99.90
61916;DHT22;47868;51.326;6.550;2023-02-01T10:30:53;7.80;99.90
61916;DHT22;47868;51.326;6.550;2023-02-01T10:33:24;7.90;99.90
61916;DHT22;47868;51.326;6.550;2023-02-01T10:36:14;7.80;99.90
61916;DHT22;47868;51.326;6.550;2023-02-01T10:38:42;7.90;99.90
61916;DHT22;47868;51.326;6.550;2023-02-01T10:41:15;8.00;99.90
61916;DHT22;47868;51.326;6.550;2023-02-01T10:43:42;8.00;99.90
61916;DHT22;47868;51.326;6.550;2023-02-01T10:46:08;7.80;99.90
61916;DHT22;47868;51.326;6.550;2023-02-01T10:48:35;7.80;99.90
61916;DHT22;47868;51.326;6.550;2023-02-01T10:53:58;7.80;99.90
61916;DHT22;47868;51.326;6.550;2023-02-01T10:56:27;7.80;99.90
61916;DHT22;47868;51.326;6.550;2023-02-01T10:59:01;7.90;99.90
61916;DHT22;47868;51.326;6.550;2023-02-01T11:01:36;7.90;99.90
61916;DHT22;47868;51.326;6.550;2023-02-01T11:04:04;7.90;99.90
61916;DHT22;47868;51.326;6.550;2023-02-01T11:06:40;7.90;99.90
61916;DHT22;47868;51.326;6.550;2023-02-01T11:12:01;7.90;99.90
61916;DHT22;47868;51.326;6.550;2023-02-01T11:14:39;7.90;99.90
61916;DHT22;47868;51.326;6.550;2023-02-01T11:19:44;7.90;99.90
61916;DHT22;47868;51.326;6.550;2023-02-01T11:22:12;7.90;99.90
61916;DHT22;47868;51.326;6.550;2023-02-01T11:24:39;7.90;99.90
61916;DHT22;47868;51.326;6.550;2023-02-01T11:27:14;7.90;99.90
61916;DHT22;47868;51.326;6.550;2023-02-01T11:29:43;7.90;99.90
61916;DHT22;47868;51.326;6.550;2023-02-01T11:32:12;8.00;99.90
61916;DHT22;47868;51.326;6.550;2023-02-01T11:37:38;7.90;99.90
61916;DHT22;47868;51.326;6.550;2023-02-01T11:40:23;7.90;99.90
61916;DHT22;47868;51.326;6.550;2023-02-01T11:42:59;7.90;99.90
61916;DHT22;47868;51.326;6.550;2023-02-01T11:45:32;7.90;99.90
61916;DHT22;47868;51.326;6.550;2023-02-01T11:48:00;7.90;99.90
61916;DHT22;47868;51.326;6.550;2023-02-01T11:53:36;8.10;99.90
61916;DHT22;47868;51.326;6.550;2023-02-01T11:56:42;8.20;99.90
61916;DHT22;47868;51.326;6.550;2023-02-01T12:05:29;8.30;99.90
61916;DHT22;47868;51.326;6.550;2023-02-01T12:13:55;8.10;99.90
61916;DHT22;47868;51.326;6.550;2023-02-01T12:22:05;8.00;99.90
61916;DHT22;47868;51.326;6.550;2023-02-01T12:24:58;8.00;99.90
61916;DHT22;47868;51.326;6.550;2023-02-01T12:31:11;8.10;99.90
61916;DHT22;47868;51.326;6.550;2023-02-01T12:33:43;8.10;99.90
61916;DHT22;47868;51.326;6.550;2023-02-01T12:39:16;8.10;99.90
61916;DHT22;47868;51.326;6.550;2023-02-01T12:41:47;8.10;99.90
61916;DHT22;47868;51.326;6.550;2023-02-01T12:51:59;8.00;99.90
61916;DHT22;47868;51.326;6.550;2023-02-01T12:57:13;8.10;99.90
61916;DHT22;47868;51.326;6.550;2023-02-01T13:02:47;8.10;99.90
61916;DHT22;47868;51.326;6.550;2023-02-01T13:05:19;8.10;99.90
61916;DHT22;47868;51.326;6.550;2023-02-01T13:07:53;8.10;99.90
61916;DHT22;47868;51.326;6.550;2023-02-01T13:10:35;8.10;99.90
61916;DHT22;47868;51.326;6.550;2023-02-01T13:16:23;8.20;99.90
61916;DHT22;47868;51.326;6.550;2023-02-01T13:18:59;8.20;99.90
61916;DHT22;47868;51.326;6.550;2023-02-01T13:21:35;8.20;99.90
61916;DHT22;47868;51.326;6.550;2023-02-01T13:24:02;8.30;99.90
61916;DHT22;47868;51.326;6.550;2023-02-01T13:26:28;8.20;99.90
61916;DHT22;47868;51.326;6.550;2023-02-01T13:29:06;8.30;99.90
61916;DHT22;47868;51.326;6.550;2023-02-01T13:42:56;8.30;99.90
61916;DHT22;47868;51.326;6.550;2023-02-01T13:45:29;8.40;99.90
61916;DHT22;47868;51.326;6.550;2023-02-01T13:47:58;8.40;99.90
61916;DHT22;47868;51.326;6.550;2023-02-01T13:50:35;8.40;99.90
61916;DHT22;47868;51.326;6.550;2023-02-01T13:55:59;8.40;99.90
61916;DHT22;47868;51.326;6.550;2023-02-01T14:06:38;8.60;99.90
61916;DHT22;47868;51.326;6.550;2023-02-01T14:11:46;8.50;99.90
61916;DHT22;47868;51.326;6.550;2023-02-01T14:16:42;8.50;99.90
61916;DHT22;47868;51.326;6.550;2023-02-01T14:19:19;8.50;99.90
61916;DHT22;47868;51.326;6.550;2023-02-01T14:21:52;8.50;99.90
61916;DHT22;47868;51.326;6.550;2023-02-01T14:24:36;8.50;99.90
61916;DHT22;47868;51.326;6.550;2023-02-01T14:29:42;8.50;99.90
61916;DHT22;47868;51.326;6.550;2023-02-01T14:32:18;8.60;99.90
61916;DHT22;47868;51.326;6.550;2023-02-01T14:47:43;8.70;99.90
61916;DHT22;47868;51.326;6.550;2023-02-01T14:55:52;8.70;99.90
61916;DHT22;47868;51.326;6.550;2023-02-01T14:58:32;8.70;99.90
61916;DHT22;47868;51.326;6.550;2023-02-01T15:01:05;8.70;99.90
61916;DHT22;47868;51.326;6.550;2023-02-01T15:04:11;8.60;99.90
61916;DHT22;47868;51.326;6.550;2023-02-01T15:07:25;8.60;99.90
61916;DHT22;47868;51.326;6.550;2023-02-01T15:15:19;8.60;99.90
61916;DHT22;47868;51.326;6.550;2023-02-01T15:17:56;8.60;99.90
61916;DHT22;47868;51.326;6.550;2023-02-01T15:20:32;8.60;99.90
61916;DHT22;47868;51.326;6.550;2023-02-01T15:23:14;8.60;99.90
61916;DHT22;47868;51.326;6.550;2023-02-01T15:25:44;8.60;99.90
61916;DHT22;47868;51.326;6.550;2023-02-01T15:28:13;8.60;99.90
61916;DHT22;47868;51.326;6.550;2023-02-01T15:30:39;8.10;99.90
61916;DHT22;47868;51.326;6.550;2023-02-01T15:33:16;8.60;99.90
61916;DHT22;47868;51.326;6.550;2023-02-01T15:35:54;8.50;99.90
61916;DHT22;47868;51.326;6.550;2023-02-01T15:43:32;8.50;99.90
61916;DHT22;47868;51.326;6.550;2023-02-01T15:46:00;8.50;99.90
61916;DHT22;47868;51.326;6.550;2023-02-01T15:48:31;8.50;99.90
61916;DHT22;47868;51.326;6.550;2023-02-01T15:50:58;8.50;99.90
61916;DHT22;47868;51.326;6.550;2023-02-01T15:53:25;8.50;99.90
61916;DHT22;47868;51.326;6.550;2023-02-01T15:55:58;8.50;99.90
61916;DHT22;47868;51.326;6.550;2023-02-01T15:58:26;8.40;99.90
61916;DHT22;47868;51.326;6.550;2023-02-01T16:01:04;8.50;99.90
61916;DHT22;47868;51.326;6.550;2023-02-01T16:03:39;8.40;99.90
61916;DHT22;47868;51.326;6.550;2023-02-01T16:06:11;8.50;99.90
61916;DHT22;47868;51.326;6.550;2023-02-01T16:08:38;8.40;99.90
61916;DHT22;47868;51.326;6.550;2023-02-01T16:11:27;8.40;99.90
61916;DHT22;47868;51.326;6.550;2023-02-01T16:13:53;8.40;99.90
61916;DHT22;47868;51.326;6.550;2023-02-01T16:16:19;8.40;99.90
61916;DHT22;47868;51.326;6.550;2023-02-01T16:18:45;8.40;99.90
61916;DHT22;47868;51.326;6.550;2023-02-01T16:21:11;8.40;99.90
61916;DHT22;47868;51.326;6.550;2023-02-01T16:23:37;8.40;99.90
61916;DHT22;47868;51.326;6.550;2023-02-01T16:26:03;8.40;99.90
61916;DHT22;47868;51.326;6.550;2023-02-01T16:28:29;8.40;99.90
61916;DHT22;47868;51.326;6.550;2023-02-01T16:30:55;8.40;99.90
61916;DHT22;47868;51.326;6.550;2023-02-01T16:33:21;8.40;99.90
61916;DHT22;47868;51.326;6.550;2023-02-01T16:35:50;8.30;99.90
61916;DHT22;47868;51.326;6.550;2023-02-01T16:38:18;8.40;99.90
61916;DHT22;47868;51.326;6.550;2023-02-01T16:40:47;8.30;99.90
61916;DHT22;47868;51.326;6.550;2023-02-01T16:43:18;8.40;99.90
61916;DHT22;47868;51.326;6.550;2023-02-01T16:45:45;8.40;99.90
61916;DHT22;47868;51.326;6.550;2023-02-01T16:48:22;8.40;99.90
61916;DHT22;47868;51.326;6.550;2023-02-01T16:51:00;8.40;99.90
61916;DHT22;47868;51.326;6.550;2023-02-01T16:53:27;8.30;99.90
61916;DHT22;47868;51.326;6.550;2023-02-01T16:55:54;8.40;99.90
61916;DHT22;47868;51.326;6.550;2023-02-01T16:58:20;8.40;99.90
61916;DHT22;47868;51.326;6.550;2023-02-01T17:00:47;8.40;99.90
61916;DHT22;47868;51.326;6.550;2023-02-01T17:03:14;8.40;99.90
61916;DHT22;47868;51.326;6.550;2023-02-01T17:05:43;8.30;99.90
61916;DHT22;47868;51.326;6.550;2023-02-01T17:08:12;8.40;99.90
61916;DHT22;47868;51.326;6.550;2023-02-01T17:10:39;8.40;99.90
61916;DHT22;47868;51.326;6.550;2023-02-01T17:13:07;8.40;99.90
61916;DHT22;47868;51.326;6.550;2023-02-01T17:15:34;8.40;99.90
61916;DHT22;47868;51.326;6.550;2023-02-01T17:18:01;8.40;99.90
61916;DHT22;47868;51.326;6.550;2023-02-01T17:20:30;8.40;99.90
61916;DHT22;47868;51.326;6.550;2023-02-01T17:22:59;8.30;99.90
61916;DHT22;47868;51.326;6.550;2023-02-01T17:25:26;8.40;99.90
61916;DHT22;47868;51.326;6.550;2023-02-01T17:27:53;8.40;99.90
61916;DHT22;47868;51.326;6.550;2023-02-01T17:30:18;8.40;99.90
61916;DHT22;47868;51.326;6.550;2023-02-01T17:32:44;8.40;99.90
61916;DHT22;47868;51.326;6.550;2023-02-01T17:35:22;8.30;99.90
61916;DHT22;47868;51.326;6.550;2023-02-01T17:37:50;8.40;99.90
61916;DHT22;47868;51.326;6.550;2023-02-01T17:40:17;8.40;99.90
61916;DHT22;47868;51.326;6.550;2023-02-01T17:42:43;8.40;99.90
61916;DHT22;47868;51.326;6.550;2023-02-01T17:47:49;8.30;99.90
61916;DHT22;47868;51.326;6.550;2023-02-01T17:50:15;8.30;99.90
61916;DHT22;47868;51.326;6.550;2023-02-01T17:52:41;8.40;99.90
61916;DHT22;47868;51.326;6.550;2023-02-01T17:55:20;8.40;99.90
61916;DHT22;47868;51.326;6.550;2023-02-01T17:57:47;8.30;99.90
61916;DHT22;47868;51.326;6.550;2023-02-01T18:00:14;8.30;99.90
61916;DHT22;47868;51.326;6.550;2023-02-01T18:02:39;8.30;99.90
61916;DHT22;47868;51.326;6.550;2023-02-01T18:05:35;8.30;99.90
61916;DHT22;47868;51.326;6.550;2023-02-01T18:08:02;8.30;99.90
61916;DHT22;47868;51.326;6.550;2023-02-01T18:10:28;8.30;99.90
61916;DHT22;47868;51.326;6.550;2023-02-01T18:12:54;8.30;99.90
61916;DHT22;47868;51.326;6.550;2023-02-01T18:15:22;8.30;99.90
61916;DHT22;47868;51.326;6.550;2023-02-01T18:17:48;8.30;99.90
61916;DHT22;47868;51.326;6.550;2023-02-01T18:20:16;8.40;99.90
61916;DHT22;47868;51.326;6.550;2023-02-01T18:22:43;8.40;99.90
61916;DHT22;47868;51.326;6.550;2023-02-01T18:25:30;8.50;99.90
61916;DHT22;47868;51.326;6.550;2023-02-01T18:28:01;8.70;99.90
61916;DHT22;47868;51.326;6.550;2023-02-01T18:30:31;8.40;99.90
61916;DHT22;47868;51.326;6.550;2023-02-01T18:32:58;8.40;99.90
61916;DHT22;47868;51.326;6.550;2023-02-01T18:35:26;8.40;99.90
61916;DHT22;47868;51.326;6.550;2023-02-01T18:37:52;8.40;99.90
61916;DHT22;47868;51.326;6.550;2023-02-01T18:40:22;8.40;99.90
61916;DHT22;47868;51.326;6.550;2023-02-01T18:42:48;8.40;99.90
61916;DHT22;47868;51.326;6.550;2023-02-01T18:45:35;8.40;99.90